Time;durP1;ratioP1;P1;durP2;ratioP2;P2;SDS_P1;SDS_P2;PMS_P1;PMS_P2;Temp;Humidity;BMP_temperature;BMP_pressure;BME280_temperature;BME280_humidity;BME280_pressure;Samples;Min_cycle;Max_cycle;Signal;HPM_P1;HPM_P2
2022/12/22 06:11:20;;;;;;;14.60;12.30;;;;;;;;;;5063165;23;20753;-70
2022/12/22 06:14:10;;;;;;;16.00;11.60;;;;;;;;;;4925188;29;20468;-71
2022/12/22 06:16:59;;;;;;;14.70;11.60;;;;;;;;;;4914957;29;20571;-71
2022/12/22 06:20:00;;;;;;;14.40;12.27;;;;;;;;;;4906015;29;20476;-71
2022/12/22 06:22:48;;;;;;;15.90;12.33;;;;;;;;;;4894529;29;20465;-71
2022/12/22 06:25:43;;;;;;;15.73;12.60;;;;;;;;;;4891704;29;20462;-71
2022/12/22 06:28:35;;;;;;;14.70;11.73;;;;;;;;;;4899550;28;20548;-71
2022/12/22 06:31:33;;;;;;;15.13;11.70;;;;;;;;;;4892289;29;20481;-71
2022/12/22 06:34:28;;;;;;;15.20;12.43;;;;;;;;;;4899876;29;20466;-71
2022/12/22 06:37:29;;;;;;;15.13;13.10;;;;;;;;;;4890787;29;20499;-71
2022/12/22 06:40:17;;;;;;;16.77;12.70;;;;;;;;;;4887169;29;20607;-71
2022/12/22 06:43:10;;;;;;;16.63;12.93;;;;;;;;;;4888582;29;20528;-71
2022/12/22 06:46:00;;;;;;;18.60;14.60;;;;;;;;;;4888856;29;20472;-71
2022/12/22 06:48:48;;;;;;;21.27;14.97;;;;;;;;;;4893747;28;20515;-73
2022/12/22 06:51:37;;;;;;;19.27;14.77;;;;;;;;;;4898619;29;21092;-72
2022/12/22 06:54:28;;;;;;;18.40;15.30;;;;;;;;;;4909916;29;20465;-72
2022/12/22 06:57:17;;;;;;;18.70;13.30;;;;;;;;;;4892771;29;20552;-71
2022/12/22 07:00:07;;;;;;;20.73;14.43;;;;;;;;;;4895895;29;20488;-72
2022/12/22 07:02:57;;;;;;;19.33;14.67;;;;;;;;;;4901985;29;20457;-71
2022/12/22 07:05:49;;;;;;;19.57;15.67;;;;;;;;;;4894856;29;22194;-71
2022/12/22 07:08:38;;;;;;;19.40;13.67;;;;;;;;;;4895869;28;20556;-71
2022/12/22 07:11:26;;;;;;;20.63;16.60;;;;;;;;;;4895740;29;20799;-72
2022/12/22 07:14:15;;;;;;;17.97;14.60;;;;;;;;;;4894948;29;20972;-72
2022/12/22 07:17:05;;;;;;;17.90;13.77;;;;;;;;;;4910901;29;20449;-72
2022/12/22 07:19:55;;;;;;;20.73;14.83;;;;;;;;;;4909795;29;20551;-71
2022/12/22 07:22:44;;;;;;;18.83;13.97;;;;;;;;;;4909011;29;20472;-71
2022/12/22 07:25:34;;;;;;;16.10;13.90;;;;;;;;;;4911695;29;20965;-71
2022/12/22 07:28:22;;;;;;;18.70;14.70;;;;;;;;;;4903932;28;21161;-72
2022/12/22 07:31:12;;;;;;;20.07;14.60;;;;;;;;;;4909265;29;20478;-72
2022/12/22 07:34:00;;;;;;;19.47;14.97;;;;;;;;;;4906314;29;20489;-73
2022/12/22 07:36:52;;;;;;;20.23;15.70;;;;;;;;;;4910899;29;20469;-72
2022/12/22 07:39:40;;;;;;;19.60;15.13;;;;;;;;;;4899061;28;20477;-73
2022/12/22 07:42:44;;;;;;;19.63;15.60;;;;;;;;;;4896678;29;20524;-72
2022/12/22 07:45:33;;;;;;;20.17;14.50;;;;;;;;;;4900388;29;20516;-73
2022/12/22 07:51:28;;;;;;;21.70;14.57;;;;;;;;;;4910905;29;20870;-73
2022/12/22 07:54:18;;;;;;;22.17;15.37;;;;;;;;;;4907790;29;20820;-73
2022/12/22 07:57:07;;;;;;;19.90;15.70;;;;;;;;;;4915154;29;20954;-73
2022/12/22 07:59:55;;;;;;;19.33;14.90;;;;;;;;;;4906749;29;21003;-73
2022/12/22 08:02:44;;;;;;;22.17;15.80;;;;;;;;;;4907051;29;20453;-72
2022/12/22 08:05:33;;;;;;;18.07;13.73;;;;;;;;;;4909081;29;20465;-73
2022/12/22 08:08:22;;;;;;;22.23;15.57;;;;;;;;;;4911754;29;20496;-73
2022/12/22 08:11:12;;;;;;;18.27;14.03;;;;;;;;;;4909092;29;20991;-73
2022/12/22 08:14:00;;;;;;;19.47;14.83;;;;;;;;;;4896097;29;20957;-73
2022/12/22 08:16:49;;;;;;;20.00;14.80;;;;;;;;;;4909678;29;20453;-73
2022/12/22 08:19:38;;;;;;;19.23;13.80;;;;;;;;;;4906601;28;20501;-73
2022/12/22 08:22:28;;;;;;;18.30;14.50;;;;;;;;;;4910103;29;21004;-70
2022/12/22 08:25:17;;;;;;;19.13;14.47;;;;;;;;;;4909387;29;20957;-70
2022/12/22 08:28:07;;;;;;;16.70;13.57;;;;;;;;;;4898610;28;20485;-73
2022/12/22 08:30:56;;;;;;;17.17;13.77;;;;;;;;;;4913096;29;21006;-73
2022/12/22 08:33:44;;;;;;;18.47;14.67;;;;;;;;;;4908647;29;20460;-73
2022/12/22 08:36:34;;;;;;;17.93;14.87;;;;;;;;;;4901536;29;20458;-73
2022/12/22 08:39:24;;;;;;;19.07;14.70;;;;;;;;;;4910867;28;21013;-73
2022/12/22 08:42:14;;;;;;;17.03;13.53;;;;;;;;;;4911945;29;20488;-73
2022/12/22 08:45:04;;;;;;;16.33;13.47;;;;;;;;;;4917203;29;20464;-73
2022/12/22 08:47:52;;;;;;;16.63;12.70;;;;;;;;;;4896748;28;20569;-73
2022/12/22 08:50:41;;;;;;;15.30;12.10;;;;;;;;;;4905450;29;20523;-73
2022/12/22 08:53:30;;;;;;;16.00;12.00;;;;;;;;;;4905889;29;20469;-73
2022/12/22 08:56:38;;;;;;;14.60;11.50;;;;;;;;;;4905237;29;20539;-73
2022/12/22 08:59:27;;;;;;;13.80;11.13;;;;;;;;;;4893248;29;20530;-73
2022/12/22 09:02:18;;;;;;;12.67;10.70;;;;;;;;;;4909020;29;20531;-73
2022/12/22 09:05:07;;;;;;;14.30;11.47;;;;;;;;;;4902657;29;21127;-73
2022/12/22 09:07:56;;;;;;;15.30;12.03;;;;;;;;;;4905004;28;20476;-73
2022/12/22 09:10:44;;;;;;;14.03;11.50;;;;;;;;;;4904283;29;20489;-73
2022/12/22 09:13:33;;;;;;;11.77;9.73;;;;;;;;;;4893616;29;20461;-73
2022/12/22 09:16:22;;;;;;;10.73;9.17;;;;;;;;;;4908136;29;20457;-73
2022/12/22 09:19:12;;;;;;;12.00;9.40;;;;;;;;;;4900132;28;20529;-73
2022/12/22 09:22:01;;;;;;;11.27;8.93;;;;;;;;;;4903179;29;20493;-72
2022/12/22 09:24:49;;;;;;;9.70;8.23;;;;;;;;;;4907328;29;20457;-73
2022/12/22 09:27:39;;;;;;;10.67;9.13;;;;;;;;;;4901897;28;20465;-73
2022/12/22 09:30:28;;;;;;;12.43;9.70;;;;;;;;;;4896590;29;20484;-72
2022/12/22 09:33:16;;;;;;;11.37;9.07;;;;;;;;;;4902971;29;20454;-73
2022/12/22 09:36:08;;;;;;;11.80;10.17;;;;;;;;;;4903669;29;20467;-73
2022/12/22 09:38:56;;;;;;;13.43;10.33;;;;;;;;;;4892866;28;20491;-74
2022/12/22 09:41:49;;;;;;;13.60;11.40;;;;;;;;;;4901282;29;20492;-73
2022/12/22 09:44:43;;;;;;;13.00;9.80;;;;;;;;;;4908163;29;21013;-73
2022/12/22 09:47:34;;;;;;;14.07;11.53;;;;;;;;;;4900308;28;20464;-73
2022/12/22 09:50:24;;;;;;;15.63;11.60;;;;;;;;;;4901228;29;20466;-73
2022/12/22 09:53:17;;;;;;;15.77;12.20;;;;;;;;;;4915782;29;20469;-73
2022/12/22 09:56:11;;;;;;;15.80;12.70;;;;;;;;;;4897797;29;20458;-72
2022/12/22 09:59:01;;;;;;;18.43;13.77;;;;;;;;;;4906292;28;20473;-72
2022/12/22 10:01:57;;;;;;;17.47;12.70;;;;;;;;;;4910689;29;20571;-73
2022/12/22 10:04:54;;;;;;;18.60;13.93;;;;;;;;;;4912153;29;20457;-73
2022/12/22 10:07:43;;;;;;;19.73;13.97;;;;;;;;;;4910745;28;20461;-73
2022/12/22 10:10:35;;;;;;;18.90;14.50;;;;;;;;;;4902651;29;20493;-73
2022/12/22 10:13:23;;;;;;;19.60;14.97;;;;;;;;;;4902207;29;20874;-73
2022/12/22 10:16:19;;;;;;;20.10;14.73;;;;;;;;;;4904172;29;20546;-73
2022/12/22 10:19:09;;;;;;;18.80;13.27;;;;;;;;;;4902884;29;20565;-73
2022/12/22 10:22:14;;;;;;;18.37;13.80;;;;;;;;;;4893685;29;20496;-73
2022/12/22 10:25:05;;;;;;;16.10;12.10;;;;;;;;;;4904805;29;20993;-73
2022/12/22 10:27:56;;;;;;;20.13;12.03;;;;;;;;;;4908848;28;20969;-73
2022/12/22 10:30:44;;;;;;;15.40;12.97;;;;;;;;;;4904923;29;20478;-73
2022/12/22 10:33:34;;;;;;;16.07;12.53;;;;;;;;;;4905380;29;20464;-72
2022/12/22 10:36:30;;;;;;;16.30;11.30;;;;;;;;;;4900558;29;20561;-73
2022/12/22 10:39:22;;;;;;;16.70;12.80;;;;;;;;;;4893587;29;20489;-73
2022/12/22 10:42:14;;;;;;;18.10;12.40;;;;;;;;;;4898690;29;20489;-72
2022/12/22 10:45:04;;;;;;;16.23;11.80;;;;;;;;;;4896741;29;20449;-73
2022/12/22 10:47:54;;;;;;;17.30;12.23;;;;;;;;;;4905468;28;20557;-73
2022/12/22 10:50:46;;;;;;;14.93;12.20;;;;;;;;;;4908246;29;20970;-73
2022/12/22 10:53:42;;;;;;;15.17;11.83;;;;;;;;;;4894755;29;20812;-73
2022/12/22 10:56:31;;;;;;;15.53;12.23;;;;;;;;;;4892364;29;20466;-72
2022/12/22 10:59:23;;;;;;;17.43;12.73;;;;;;;;;;4908816;29;20474;-72
2022/12/22 11:02:26;;;;;;;16.43;12.73;;;;;;;;;;4904034;29;20496;-72
2022/12/22 11:05:14;;;;;;;19.07;12.73;;;;;;;;;;4910419;29;20457;-73
2022/12/22 11:08:13;;;;;;;16.60;12.10;;;;;;;;;;4901162;29;20559;-73
2022/12/22 11:11:04;;;;;;;18.27;13.63;;;;;;;;;;4908286;29;20505;-72
2022/12/22 11:13:58;;;;;;;18.30;13.17;;;;;;;;;;4910646;29;22594;-72
2022/12/22 11:16:51;;;;;;;17.00;12.63;;;;;;;;;;4910867;29;20577;-72
2022/12/22 11:19:54;;;;;;;17.60;12.80;;;;;;;;;;4895617;29;20497;-72
2022/12/22 11:22:48;;;;;;;15.70;11.40;;;;;;;;;;4887814;29;21185;-71
2022/12/22 11:25:42;;;;;;;17.03;12.63;;;;;;;;;;4893268;29;20458;-72
2022/12/22 11:28:37;;;;;;;17.10;12.80;;;;;;;;;;4890934;29;21024;-72
2022/12/22 11:31:34;;;;;;;16.33;12.47;;;;;;;;;;4897061;29;20858;-72
2022/12/22 11:34:32;;;;;;;16.57;12.50;;;;;;;;;;4888667;29;20466;-72
2022/12/22 11:37:28;;;;;;;16.90;11.97;;;;;;;;;;4893656;29;20485;-72
2022/12/22 11:40:25;;;;;;;14.40;11.03;;;;;;;;;;4896949;29;20488;-72
2022/12/22 11:43:22;;;;;;;14.77;10.53;;;;;;;;;;4904155;29;20450;-72
2022/12/22 11:46:17;;;;;;;15.83;11.87;;;;;;;;;;4902739;29;21027;-73
2022/12/22 11:49:21;;;;;;;14.80;10.90;;;;;;;;;;4882747;28;21304;-74
2022/12/22 11:52:14;;;;;;;13.17;10.57;;;;;;;;;;4896917;29;20576;-74
2022/12/22 11:55:16;;;;;;;16.73;11.00;;;;;;;;;;4901004;29;20537;-74
2022/12/22 11:58:20;;;;;;;16.00;11.47;;;;;;;;;;4891622;28;20477;-74
2022/12/22 12:01:16;;;;;;;13.40;10.63;;;;;;;;;;4897159;29;20489;-72
2022/12/22 12:04:34;;;;;;;15.40;10.40;;;;;;;;;;4904644;29;20460;-72
2022/12/22 12:07:26;;;;;;;14.67;11.00;;;;;;;;;;4881059;29;20470;-72
2022/12/22 12:10:18;;;;;;;14.30;10.23;;;;;;;;;;4909666;29;20485;-72
2022/12/22 12:13:16;;;;;;;12.73;9.57;;;;;;;;;;4906122;29;20474;-72
2022/12/22 12:16:18;;;;;;;12.47;10.00;;;;;;;;;;4907320;29;20458;-71
2022/12/22 12:19:22;;;;;;;12.20;10.57;;;;;;;;;;4899534;28;20860;-72
2022/12/22 12:22:20;;;;;;;13.07;10.40;;;;;;;;;;4901676;29;20893;-72
2022/12/22 12:25:17;;;;;;;13.27;9.50;;;;;;;;;;4905245;29;20464;-72
2022/12/22 12:28:20;;;;;;;13.90;10.60;;;;;;;;;;4910564;29;20487;-72
2022/12/22 12:31:16;;;;;;;12.33;9.87;;;;;;;;;;4941876;23;20508;-74
2022/12/22 12:34:15;;;;;;;13.67;10.03;;;;;;;;;;4925778;29;20463;-74
2022/12/22 12:37:08;;;;;;;14.60;10.47;;;;;;;;;;4908286;29;20567;-74
2022/12/22 12:40:00;;;;;;;13.07;11.13;;;;;;;;;;4922911;29;20484;-73
2022/12/22 12:42:49;;;;;;;13.97;11.90;;;;;;;;;;4922818;29;20457;-74
2022/12/22 12:45:41;;;;;;;13.00;10.60;;;;;;;;;;4913591;29;20488;-75
2022/12/22 12:48:40;;;;;;;13.70;10.83;;;;;;;;;;4917515;28;20481;-75
2022/12/22 12:51:48;;;;;;;12.17;10.13;;;;;;;;;;4918622;29;20564;-73
2022/12/22 12:54:38;;;;;;;13.30;9.90;;;;;;;;;;4908703;29;20537;-74
2022/12/22 12:57:28;;;;;;;11.37;9.50;;;;;;;;;;4910839;29;21132;-75
2022/12/22 13:00:31;;;;;;;11.40;8.97;;;;;;;;;;4925147;29;20567;-74
2022/12/22 13:03:39;;;;;;;12.10;9.70;;;;;;;;;;4929716;29;20472;-74
2022/12/22 13:06:52;;;;;;;15.93;11.50;;;;;;;;;;4924990;29;20847;-74
2022/12/22 13:10:05;;;;;;;15.93;11.23;;;;;;;;;;4915695;28;20493;-74
2022/12/22 13:12:56;;;;;;;13.33;11.37;;;;;;;;;;4909776;29;20853;-74
2022/12/22 13:15:45;;;;;;;12.87;10.47;;;;;;;;;;4906128;29;20465;-74
2022/12/22 13:18:43;;;;;;;13.67;9.33;;;;;;;;;;4916740;28;20481;-73
2022/12/22 13:21:41;;;;;;;10.57;8.47;;;;;;;;;;4909436;29;20492;-74
2022/12/22 13:24:43;;;;;;;10.53;8.23;;;;;;;;;;4919209;29;20468;-75
2022/12/22 13:27:37;;;;;;;9.60;7.10;;;;;;;;;;4918389;28;20539;-75
2022/12/22 13:30:28;;;;;;;9.90;6.57;;;;;;;;;;4912635;29;21050;-75
2022/12/22 13:33:19;;;;;;;9.93;6.13;;;;;;;;;;4914288;29;20961;-74
2022/12/22 13:36:15;;;;;;;9.93;6.23;;;;;;;;;;4920166;29;20462;-74
2022/12/22 13:39:05;;;;;;;10.33;6.67;;;;;;;;;;4914592;29;20854;-74
2022/12/22 13:41:55;;;;;;;11.00;7.17;;;;;;;;;;4915744;29;20496;-74
2022/12/22 13:44:44;;;;;;;10.87;6.60;;;;;;;;;;4908134;29;20459;-74
2022/12/22 13:47:34;;;;;;;9.30;6.97;;;;;;;;;;4916180;29;20824;-74
2022/12/22 13:50:24;;;;;;;9.00;7.07;;;;;;;;;;4917281;29;20485;-74
2022/12/22 13:53:19;;;;;;;8.93;5.87;;;;;;;;;;4917307;29;20464;-75
2022/12/22 13:56:29;;;;;;;10.70;6.57;;;;;;;;;;4917952;29;20454;-75
2022/12/22 13:59:21;;;;;;;13.03;7.00;;;;;;;;;;4915227;29;20481;-74
2022/12/22 14:02:15;;;;;;;7.30;5.60;;;;;;;;;;4908244;29;20545;-76
2022/12/22 14:05:05;;;;;;;10.10;6.30;;;;;;;;;;4923778;29;20445;-74
2022/12/22 14:08:01;;;;;;;8.27;6.03;;;;;;;;;;4916689;29;20482;-80
2022/12/22 14:10:53;;;;;;;8.13;5.53;;;;;;;;;;4910263;29;20489;-75
2022/12/22 14:13:41;;;;;;;9.83;6.50;;;;;;;;;;4918957;29;20988;-77
2022/12/22 14:16:30;;;;;;;9.50;5.90;;;;;;;;;;4913589;29;20991;-75
2022/12/22 14:19:19;;;;;;;10.83;6.20;;;;;;;;;;4917648;29;20481;-75
2022/12/22 14:22:11;;;;;;;10.60;6.40;;;;;;;;;;4919693;29;20487;-75
2022/12/22 14:25:01;;;;;;;7.53;5.83;;;;;;;;;;4916899;29;20460;-76
2022/12/22 14:27:53;;;;;;;10.00;6.17;;;;;;;;;;4922086;29;20465;-75
2022/12/22 14:30:43;;;;;;;9.00;5.93;;;;;;;;;;4918882;29;20497;-75
2022/12/22 14:33:33;;;;;;;10.13;6.70;;;;;;;;;;4923912;29;20499;-75
2022/12/22 14:36:23;;;;;;;9.17;5.87;;;;;;;;;;4913727;29;20524;-75
2022/12/22 14:39:21;;;;;;;10.13;5.87;;;;;;;;;;4917461;29;20488;-76
2022/12/22 14:42:14;;;;;;;9.67;5.80;;;;;;;;;;4918628;29;20611;-75
2022/12/22 14:45:15;;;;;;;9.73;6.50;;;;;;;;;;4910298;29;20518;-79
2022/12/22 14:48:08;;;;;;;10.10;6.10;;;;;;;;;;4935297;28;21690;-76
2022/12/22 14:50:59;;;;;;;8.47;6.00;;;;;;;;;;4947997;29;20496;-77
2022/12/22 14:53:49;;;;;;;12.17;7.40;;;;;;;;;;4940252;29;20479;-76
2022/12/22 14:56:47;;;;;;;13.27;7.10;;;;;;;;;;4920084;29;21163;-75
2022/12/22 14:59:35;;;;;;;10.37;6.50;;;;;;;;;;4924795;29;20572;-75
2022/12/22 15:02:30;;;;;;;9.63;6.53;;;;;;;;;;4926946;29;20496;-75
2022/12/22 15:05:27;;;;;;;8.80;5.97;;;;;;;;;;4920402;29;20460;-75
2022/12/22 15:08:34;;;;;;;11.90;6.70;;;;;;;;;;4916315;28;20512;-75
2022/12/22 15:11:26;;;;;;;9.73;5.97;;;;;;;;;;4918307;29;20477;-73
2022/12/22 15:14:18;;;;;;;10.57;6.23;;;;;;;;;;4918064;29;20462;-76
2022/12/22 15:17:07;;;;;;;8.80;5.90;;;;;;;;;;4918487;29;20487;-80
2022/12/22 15:19:58;;;;;;;12.50;6.93;;;;;;;;;;4912593;29;20592;-77
2022/12/22 15:22:47;;;;;;;10.13;6.30;;;;;;;;;;4911920;29;20487;-78
2022/12/22 15:41:02;;;;;;;9.23;6.40;;;;;;;;;;4926470;29;20511;-74
2022/12/22 15:43:51;;;;;;;8.77;7.00;;;;;;;;;;4912225;29;20524;-75
2022/12/22 15:46:50;;;;;;;9.50;6.83;;;;;;;;;;4921788;29;20460;-77
2022/12/22 15:49:39;;;;;;;13.27;7.00;;;;;;;;;;4913258;29;20488;-75
2022/12/22 15:52:28;;;;;;;10.77;6.57;;;;;;;;;;4917913;29;20473;-75
2022/12/22 15:55:18;;;;;;;10.57;6.60;;;;;;;;;;4913437;29;20478;-74
2022/12/22 15:58:10;;;;;;;12.00;6.00;;;;;;;;;;4916911;28;20492;-74
2022/12/22 16:00:59;;;;;;;12.63;7.10;;;;;;;;;;4899464;29;20532;-74
2022/12/22 16:03:47;;;;;;;15.60;7.33;;;;;;;;;;4902598;29;20464;-74
2022/12/22 16:06:36;;;;;;;9.23;6.50;;;;;;;;;;4908688;29;20464;-74
2022/12/22 16:09:27;;;;;;;10.60;7.07;;;;;;;;;;4907363;28;20995;-75
2022/12/22 16:12:17;;;;;;;13.37;7.63;;;;;;;;;;4917845;29;20448;-74
2022/12/22 16:15:07;;;;;;;14.33;6.70;;;;;;;;;;4919493;29;20471;-74
2022/12/22 16:17:56;;;;;;;11.13;7.10;;;;;;;;;;4913059;29;20484;-74
2022/12/22 16:20:45;;;;;;;10.17;6.87;;;;;;;;;;4920134;29;20484;-74
2022/12/22 16:23:34;;;;;;;11.30;7.13;;;;;;;;;;4916437;29;21024;-75
2022/12/22 16:26:23;;;;;;;11.37;8.53;;;;;;;;;;4910755;29;20483;-74
2022/12/22 16:29:15;;;;;;;14.97;8.53;;;;;;;;;;4906785;28;21673;-74
2022/12/22 16:32:16;;;;;;;12.00;7.50;;;;;;;;;;4910071;29;20501;-74
2022/12/22 16:35:14;;;;;;;14.07;7.73;;;;;;;;;;4921475;29;20471;-74
2022/12/22 16:38:03;;;;;;;10.70;7.90;;;;;;;;;;4925904;28;20576;-75
2022/12/22 16:40:53;;;;;;;9.43;7.47;;;;;;;;;;4912642;29;20486;-74
2022/12/22 16:43:42;;;;;;;12.77;8.53;;;;;;;;;;4909217;29;20508;-75
2022/12/22 16:46:48;;;;;;;13.10;9.10;;;;;;;;;;4909372;29;21421;-76
2022/12/22 16:49:38;;;;;;;13.30;8.57;;;;;;;;;;4913351;29;20484;-73
2022/12/22 16:52:30;;;;;;;11.97;8.40;;;;;;;;;;4911860;29;20505;-74
2022/12/22 16:55:19;;;;;;;15.83;9.60;;;;;;;;;;4913785;29;20460;-74
2022/12/22 16:58:10;;;;;;;11.40;8.13;;;;;;;;;;4918123;29;21813;-74
2022/12/22 17:01:01;;;;;;;11.57;8.13;;;;;;;;;;4912447;29;20477;-74
2022/12/22 17:03:50;;;;;;;14.23;9.03;;;;;;;;;;4925532;29;20480;-74
2022/12/22 17:06:40;;;;;;;13.10;8.70;;;;;;;;;;4932925;29;20444;-74
2022/12/22 17:09:31;;;;;;;12.40;8.63;;;;;;;;;;4914766;28;20617;-73
2022/12/22 17:12:20;;;;;;;14.37;7.90;;;;;;;;;;4923511;29;20976;-73
2022/12/22 17:15:13;;;;;;;10.70;8.30;;;;;;;;;;4910020;29;20453;-77
2022/12/22 17:18:02;;;;;;;12.03;8.53;;;;;;;;;;4915021;29;20481;-74
2022/12/22 17:20:51;;;;;;;11.90;7.57;;;;;;;;;;4918989;29;20476;-74
2022/12/22 17:23:43;;;;;;;12.73;8.20;;;;;;;;;;4915013;29;20481;-74
2022/12/22 17:26:33;;;;;;;13.23;8.07;;;;;;;;;;4912430;29;20514;-72
2022/12/22 17:29:24;;;;;;;13.13;7.57;;;;;;;;;;4945061;29;20469;-73
2022/12/22 17:32:13;;;;;;;10.80;7.80;;;;;;;;;;4944157;29;20441;-77
2022/12/22 17:35:01;;;;;;;14.90;8.30;;;;;;;;;;4940887;29;20438;-76
2022/12/22 17:37:52;;;;;;;11.27;7.03;;;;;;;;;;4944823;28;20527;-75
2022/12/22 17:40:42;;;;;;;11.00;7.77;;;;;;;;;;4927803;29;20485;-73
2022/12/22 17:43:32;;;;;;;10.73;8.37;;;;;;;;;;4917190;29;20473;-73
2022/12/22 17:46:21;;;;;;;13.23;8.10;;;;;;;;;;4929935;29;20445;-74
2022/12/22 17:49:10;;;;;;;13.50;7.90;;;;;;;;;;4924477;29;20488;-74
2022/12/22 17:52:00;;;;;;;11.40;7.10;;;;;;;;;;4921008;29;20552;-74
2022/12/22 17:54:50;;;;;;;12.17;7.20;;;;;;;;;;4908981;29;20826;-74
2022/12/22 17:57:40;;;;;;;13.37;8.00;;;;;;;;;;4904521;29;20464;-73
2022/12/22 18:00:29;;;;;;;13.00;7.37;;;;;;;;;;4911912;29;20568;-74
2022/12/22 18:03:18;;;;;;;12.17;8.10;;;;;;;;;;4911130;29;20492;-75
2022/12/22 18:06:07;;;;;;;14.77;8.50;;;;;;;;;;4908958;29;20842;-75
2022/12/22 18:09:05;;;;;;;12.30;8.00;;;;;;;;;;4928658;28;20472;-73
2022/12/22 18:11:54;;;;;;;12.37;7.47;;;;;;;;;;4915244;29;20484;-73
2022/12/22 18:14:44;;;;;;;10.43;7.63;;;;;;;;;;4913329;29;20470;-73
2022/12/22 18:17:33;;;;;;;10.50;7.03;;;;;;;;;;4911247;28;20458;-74
2022/12/22 18:20:25;;;;;;;14.30;8.17;;;;;;;;;;4917210;29;20483;-75
2022/12/22 18:23:17;;;;;;;9.87;8.30;;;;;;;;;;4916739;29;20480;-75
2022/12/22 18:26:07;;;;;;;9.57;7.50;;;;;;;;;;4905581;29;20487;-75
2022/12/22 18:28:55;;;;;;;14.73;7.97;;;;;;;;;;4912427;29;20480;-75
2022/12/22 18:31:49;;;;;;;12.63;8.00;;;;;;;;;;4915845;23;21258;-74
2022/12/22 18:34:38;;;;;;;12.73;8.00;;;;;;;;;;4898120;29;20514;-75
2022/12/22 18:37:27;;;;;;;10.33;7.90;;;;;;;;;;4897784;29;20544;-76
2022/12/22 18:40:22;;;;;;;13.57;8.00;;;;;;;;;;4894469;29;20629;-73
2022/12/22 18:43:16;;;;;;;11.17;8.60;;;;;;;;;;4883337;29;20585;-75
2022/12/22 18:46:04;;;;;;;13.70;9.27;;;;;;;;;;4874845;29;20487;-73
2022/12/22 18:48:54;;;;;;;14.17;8.70;;;;;;;;;;4886348;29;20494;-73
2022/12/22 18:51:51;;;;;;;12.83;8.30;;;;;;;;;;4888920;29;20478;-74
2022/12/22 18:54:40;;;;;;;12.23;9.13;;;;;;;;;;4879379;29;20467;-72
2022/12/22 18:57:28;;;;;;;15.43;9.80;;;;;;;;;;4885013;29;20855;-73
2022/12/22 19:00:18;;;;;;;12.73;8.40;;;;;;;;;;4882963;29;21157;-74
2022/12/22 19:03:14;;;;;;;10.70;8.40;;;;;;;;;;4890640;29;20548;-73
2022/12/22 19:06:04;;;;;;;16.87;10.87;;;;;;;;;;4885451;29;20462;-78
2022/12/22 19:08:53;;;;;;;12.63;9.77;;;;;;;;;;4884549;29;20482;-77
2022/12/22 19:11:42;;;;;;;15.20;9.43;;;;;;;;;;4888775;29;21053;-76
2022/12/22 19:14:31;;;;;;;14.17;10.30;;;;;;;;;;4880705;29;20960;-76
2022/12/22 19:17:21;;;;;;;15.57;10.90;;;;;;;;;;4886975;29;21459;-75
2022/12/22 19:20:15;;;;;;;18.70;11.37;;;;;;;;;;4886815;29;20490;-76
2022/12/22 19:23:05;;;;;;;18.40;10.20;;;;;;;;;;4886285;29;20552;-75
2022/12/22 19:25:55;;;;;;;15.07;10.10;;;;;;;;;;4877972;29;20468;-76
2022/12/22 19:28:44;;;;;;;16.70;9.90;;;;;;;;;;4883177;29;20522;-76
2022/12/22 19:31:34;;;;;;;14.47;10.73;;;;;;;;;;4874977;29;20486;-76
2022/12/22 19:34:23;;;;;;;17.77;10.77;;;;;;;;;;4875647;29;20466;-76
2022/12/22 19:37:12;;;;;;;14.93;10.53;;;;;;;;;;4866643;29;20455;-76
2022/12/22 19:40:01;;;;;;;14.37;9.50;;;;;;;;;;4885423;29;20485;-76
2022/12/22 19:42:51;;;;;;;14.97;9.83;;;;;;;;;;4870500;29;20625;-77
2022/12/22 19:45:40;;;;;;;13.73;10.60;;;;;;;;;;4871201;29;20474;-74
2022/12/22 19:48:29;;;;;;;15.30;9.07;;;;;;;;;;4881428;29;20499;-74
2022/12/22 19:51:17;;;;;;;16.33;10.00;;;;;;;;;;4882527;29;20494;-74
2022/12/22 19:54:06;;;;;;;15.67;9.70;;;;;;;;;;4879683;29;20455;-75
2022/12/22 19:56:56;;;;;;;14.80;9.63;;;;;;;;;;4867521;29;20455;-72
2022/12/22 19:59:47;;;;;;;17.73;9.97;;;;;;;;;;4875803;29;20500;-73
2022/12/22 20:02:35;;;;;;;15.53;10.67;;;;;;;;;;4884899;29;20637;-73
2022/12/22 20:05:29;;;;;;;15.07;9.47;;;;;;;;;;4886763;29;20509;-72
2022/12/22 20:08:18;;;;;;;12.93;9.57;;;;;;;;;;4886665;29;20603;-76
2022/12/22 20:11:12;;;;;;;18.70;11.43;;;;;;;;;;4895371;29;20477;-74
2022/12/22 20:14:04;;;;;;;18.30;9.90;;;;;;;;;;4878527;29;20470;-74
2022/12/22 20:16:53;;;;;;;13.73;9.17;;;;;;;;;;4888721;29;20463;-74
2022/12/22 20:19:42;;;;;;;13.77;10.47;;;;;;;;;;4893158;29;20510;-73
2022/12/22 20:22:30;;;;;;;14.23;10.30;;;;;;;;;;4896519;29;20484;-74
2022/12/22 20:25:20;;;;;;;17.93;12.27;;;;;;;;;;4890092;29;20531;-74
2022/12/22 20:28:13;;;;;;;16.50;10.93;;;;;;;;;;4889178;29;20494;-73
2022/12/22 20:31:03;;;;;;;16.97;11.10;;;;;;;;;;4885095;29;20549;-74
2022/12/22 20:33:55;;;;;;;13.83;10.60;;;;;;;;;;4888266;29;20462;-76
2022/12/22 20:36:44;;;;;;;15.10;10.03;;;;;;;;;;4879017;29;20548;-72
2022/12/22 20:39:32;;;;;;;15.07;10.27;;;;;;;;;;4879259;29;20522;-73
2022/12/22 20:42:22;;;;;;;17.63;11.80;;;;;;;;;;4880389;29;20558;-73
2022/12/22 20:45:12;;;;;;;12.80;10.47;;;;;;;;;;4882913;29;20495;-74
2022/12/22 20:48:02;;;;;;;17.07;11.80;;;;;;;;;;4893996;29;20565;-74
2022/12/22 20:50:51;;;;;;;15.70;10.87;;;;;;;;;;4880941;29;20959;-75
2022/12/22 20:53:40;;;;;;;20.70;11.30;;;;;;;;;;4884712;29;20466;-77
2022/12/22 20:56:30;;;;;;;20.60;12.13;;;;;;;;;;4878244;29;20454;-76
2022/12/22 20:59:20;;;;;;;16.90;11.50;;;;;;;;;;4875604;29;21130;-76
2022/12/22 21:02:19;;;;;;;22.50;12.50;;;;;;;;;;4880596;29;20489;-75
2022/12/22 21:05:09;;;;;;;18.70;11.90;;;;;;;;;;4892224;29;20478;-75
2022/12/22 21:07:58;;;;;;;16.43;10.10;;;;;;;;;;4896899;29;21357;-76
2022/12/22 21:10:47;;;;;;;17.90;11.80;;;;;;;;;;4894273;29;20462;-77
2022/12/22 21:13:36;;;;;;;15.33;11.00;;;;;;;;;;4895115;29;20471;-76
2022/12/22 21:16:25;;;;;;;19.27;12.27;;;;;;;;;;4885330;29;20462;-75
2022/12/22 21:19:16;;;;;;;16.53;12.27;;;;;;;;;;4890201;29;20561;-74
2022/12/22 21:22:06;;;;;;;19.73;11.80;;;;;;;;;;4886784;29;20490;-74
2022/12/22 21:24:55;;;;;;;18.30;12.60;;;;;;;;;;4886326;29;20477;-78
2022/12/22 21:27:47;;;;;;;20.90;13.27;;;;;;;;;;4889738;29;20983;-74
2022/12/22 21:30:36;;;;;;;17.80;12.97;;;;;;;;;;4890200;29;20477;-75
2022/12/22 21:33:25;;;;;;;17.87;12.70;;;;;;;;;;4888468;29;21032;-74
2022/12/22 21:36:17;;;;;;;18.27;13.50;;;;;;;;;;4881918;29;21519;-75
2022/12/22 21:39:15;;;;;;;19.10;12.70;;;;;;;;;;4883355;29;20528;-74
2022/12/22 21:42:04;;;;;;;18.90;12.90;;;;;;;;;;4883128;29;20482;-74
2022/12/22 21:44:53;;;;;;;17.23;11.97;;;;;;;;;;4881203;29;20858;-76
2022/12/22 21:47:42;;;;;;;18.97;11.70;;;;;;;;;;4884520;29;20549;-75
2022/12/22 21:50:32;;;;;;;18.10;11.87;;;;;;;;;;4883998;29;20477;-75
2022/12/22 21:53:20;;;;;;;20.90;12.90;;;;;;;;;;4882700;29;20490;-75
2022/12/22 21:56:17;;;;;;;20.30;12.80;;;;;;;;;;4873862;29;20552;-76
2022/12/22 21:59:08;;;;;;;19.00;13.90;;;;;;;;;;4878937;29;20489;-77
2022/12/22 22:01:57;;;;;;;17.73;12.73;;;;;;;;;;4877296;29;20482;-76
2022/12/22 22:04:45;;;;;;;18.80;12.73;;;;;;;;;;4875671;29;20541;-77
2022/12/22 22:07:42;;;;;;;19.70;13.80;;;;;;;;;;4877187;29;20458;-75
2022/12/22 22:10:32;;;;;;;16.90;12.63;;;;;;;;;;4887420;29;20465;-75
2022/12/22 22:13:22;;;;;;;20.33;13.67;;;;;;;;;;4889539;29;20894;-77
2022/12/22 22:16:11;;;;;;;20.10;13.47;;;;;;;;;;4885253;29;21024;-78
2022/12/22 22:18:59;;;;;;;20.50;13.47;;;;;;;;;;4888081;29;22389;-75
2022/12/22 22:21:48;;;;;;;21.00;14.17;;;;;;;;;;4893043;29;21025;-75
2022/12/22 22:24:36;;;;;;;22.13;15.27;;;;;;;;;;4896556;29;21116;-75
2022/12/22 22:27:25;;;;;;;24.03;14.30;;;;;;;;;;4890812;29;20458;-76
2022/12/22 22:30:17;;;;;;;22.83;14.73;;;;;;;;;;4894578;29;21010;-75
2022/12/22 22:33:05;;;;;;;22.83;14.27;;;;;;;;;;4887298;29;20560;-77
2022/12/22 22:35:54;;;;;;;19.30;14.10;;;;;;;;;;4896303;29;20461;-75
2022/12/22 22:38:50;;;;;;;20.10;14.27;;;;;;;;;;4886482;29;20490;-76
2022/12/22 22:41:39;;;;;;;20.90;14.80;;;;;;;;;;4897254;29;20490;-76
2022/12/22 22:44:31;;;;;;;22.53;15.50;;;;;;;;;;4897874;29;20824;-76
2022/12/22 22:47:23;;;;;;;20.77;15.03;;;;;;;;;;4896885;29;20462;-75
2022/12/22 22:50:12;;;;;;;19.50;14.70;;;;;;;;;;4892093;29;20490;-75
2022/12/22 22:53:00;;;;;;;19.00;14.50;;;;;;;;;;4896232;29;20490;-75
2022/12/22 22:55:49;;;;;;;24.53;16.07;;;;;;;;;;4884168;29;20990;-77
2022/12/22 22:58:39;;;;;;;21.20;15.80;;;;;;;;;;4884545;29;20494;-76
2022/12/22 23:01:28;;;;;;;23.80;17.03;;;;;;;;;;4878950;29;20962;-77
2022/12/22 23:04:18;;;;;;;24.53;16.00;;;;;;;;;;4874440;29;20498;-77
2022/12/22 23:07:08;;;;;;;22.43;15.70;;;;;;;;;;4883843;29;20472;-76
2022/12/22 23:09:57;;;;;;;22.33;16.23;;;;;;;;;;4883388;29;20482;-74
2022/12/22 23:12:45;;;;;;;24.67;17.00;;;;;;;;;;4886957;29;20480;-75
2022/12/22 23:15:34;;;;;;;21.20;16.00;;;;;;;;;;4882217;29;21000;-77